Maple Falls, WA (98266)

7:08 AM PST on February 12, 2016 (GMT -0800)
Peaceful Valley | | Change Station
CLOSE
Current Station
Personal Weather Station
Location: Maple Falls, WA
Elevation: 470 ft
Nearby Weather Stations

Elev 470 ft 48.94 °N, 122.14 °W | Updated 10 seconds ago

Overcast
Overcast
45.3 °F
Feels Like 45 °F
N
0.0
Wind Variable Wind from ENE
Gusts 0.0 mph

Today
High -- | Low -- °F
--% Chance of Precip.
Yesterday
High -- | Low -- °F
Precip. -- in
Pressure 30.05 in
Visibility 9.0 miles
Clouds Overcast 1500 ft
Windchill 45 °F
Dew Point 43 °F
Humidity 93%
Rainfall 0.00 in
Snow Depth Not available.
7:22 AM 5:23 PM
Waxing Crescent, 21% visible
METAR KBLI 121453Z AUTO 00000KT 9SM OVC015 11/09 A3002 RMK AO2 RAB02E12 SLP174 P0000 60000 T01060094 56008
Pressure 30.05 in
Visibility 9.0 miles
Clouds Overcast 1500 ft
Windchill 45 °F
Dew Point 43 °F
Humidity 93%
Rainfall 0.00 in
Snow Depth Not available.
7:22 AM 5:23 PM
Waxing Crescent, 21% visible
METAR KBLI 121453Z AUTO 00000KT 9SM OVC015 11/09 A3002 RMK AO2 RAB02E12 SLP174 P0000 60000 T01060094 56008

10-Day Weather Forecast

Almanac

Astronomy

Feb. 12, 2016 Rise Set
Actual Time
Civil Twilight
Nautical Twilight
Astronomical Twilight
Moon
Length of Visible Light
Length of Day
Tomorrow will be .
, % of the Moon is Illuminated

Today's Extremes

State Highs State Lows

Community

WunderPhotos

Upload Photos

1,892,323 photos uploaded!

WunderBlog® & News

Nearby

Air Quality

  Air Quality AQ Index Pollutant
Not available.

Snow Depth

Station Depth Elevation

Earthquake Activity

City Distance Mag. Time & Date
Minimum magnitude displayed is 2.5.

Coastal Water Temperatures

Place Temperature

Stations

Nearby Weather Stations

Station Location Temp. Windchill Dew Point Humidity Wind Precip. Elev Updated Type
                   

Watches & Warnings

There are currently no watches in effect.